createdAt,value
2022-10-26T00:01:15.726Z,4.35
2022-10-26T00:03:44.134Z,5.13
2022-10-26T00:06:17.028Z,4.22
2022-10-26T00:08:44.625Z,3.83
2022-10-26T00:11:12.410Z,6.00
2022-10-26T00:13:40.753Z,5.65
2022-10-26T00:16:09.930Z,4.20
2022-10-26T00:18:36.812Z,4.15
2022-10-26T00:21:07.630Z,4.70
2022-10-26T00:23:34.615Z,4.25
2022-10-26T00:26:01.636Z,4.35
2022-10-26T00:28:28.628Z,4.53
2022-10-26T00:30:55.886Z,4.10
2022-10-26T00:33:22.741Z,3.67
2022-10-26T00:35:53.859Z,3.38
2022-10-26T00:38:21.000Z,3.80
2022-10-26T00:40:48.192Z,3.60
2022-10-26T00:43:36.131Z,4.18
2022-10-26T00:46:06.860Z,4.03
2022-10-26T00:48:42.088Z,5.05
2022-10-26T00:51:15.755Z,4.00
2022-10-26T00:53:43.270Z,5.15
2022-10-26T00:56:10.371Z,5.13
2022-10-26T00:58:38.830Z,4.03
2022-10-26T01:01:05.737Z,3.97
2022-10-26T01:03:34.685Z,4.78
2022-10-26T01:06:04.361Z,3.95
2022-10-26T01:08:31.818Z,5.32
2022-10-26T01:11:00.433Z,4.63
2022-10-26T01:13:31.077Z,4.03
2022-10-26T01:16:29.162Z,4.00
2022-10-26T01:19:23.481Z,4.32
2022-10-26T01:22:00.858Z,4.88
2022-10-26T01:24:36.535Z,4.40
2022-10-26T01:27:25.299Z,5.05
2022-10-26T01:30:10.463Z,4.65
2022-10-26T01:33:01.334Z,4.53
2022-10-26T01:35:37.255Z,8.23
2022-10-26T01:38:36.486Z,5.70
2022-10-26T01:41:28.289Z,4.80
2022-10-26T01:44:43.042Z,5.47
2022-10-26T01:47:13.636Z,6.30
2022-10-26T01:49:48.496Z,5.72
2022-10-26T01:52:15.465Z,5.72
2022-10-26T01:54:42.320Z,6.85
2022-10-26T01:57:12.148Z,5.82
2022-10-26T02:00:03.385Z,5.75
2022-10-26T02:03:04.548Z,7.38
2022-10-26T02:05:34.082Z,12.63
2022-10-26T02:08:28.890Z,7.85
2022-10-26T02:11:10.934Z,7.68
2022-10-26T02:14:18.473Z,6.75
2022-10-26T02:16:45.333Z,6.60
2022-10-26T02:19:15.056Z,13.98
2022-10-26T02:21:47.664Z,8.05
2022-10-26T02:24:16.901Z,11.18
2022-10-26T02:26:47.682Z,6.80
2022-10-26T02:29:19.433Z,7.47
2022-10-26T02:31:50.304Z,10.70
2022-10-26T02:34:22.753Z,7.10
2022-10-26T02:36:53.818Z,7.05
2022-10-26T02:39:22.050Z,6.43
2022-10-26T02:41:50.056Z,6.32
2022-10-26T02:44:23.875Z,6.75
2022-10-26T02:46:52.063Z,7.53
2022-10-26T02:49:19.605Z,7.07
2022-10-26T02:51:50.628Z,6.15
2022-10-26T02:55:01.023Z,6.00
2022-10-26T02:57:42.400Z,7.38
2022-10-26T03:00:11.891Z,6.30
2022-10-26T03:02:38.966Z,7.18
2022-10-26T03:05:22.927Z,6.57
2022-10-26T03:26:03.839Z,6.80
2022-10-26T03:28:31.440Z,6.45
2022-10-26T03:30:58.208Z,8.07
2022-10-26T03:33:27.096Z,7.80
2022-10-26T03:35:57.989Z,7.97
2022-10-26T03:38:25.085Z,7.35
2022-10-26T03:40:52.009Z,8.73
2022-10-26T03:43:19.007Z,9.07
2022-10-26T03:45:46.057Z,8.38
2022-10-26T03:48:13.285Z,9.07
2022-10-26T03:50:40.148Z,8.30
2022-10-26T03:53:06.956Z,7.47
2022-10-26T03:55:33.843Z,9.15
2022-10-26T03:58:00.622Z,7.70
2022-10-26T04:00:27.466Z,7.30
2022-10-26T04:02:59.304Z,8.90
2022-10-26T04:05:28.418Z,7.97
2022-10-26T04:08:00.390Z,9.25
2022-10-26T04:10:27.857Z,8.30
2022-10-26T04:12:55.558Z,8.05
2022-10-26T04:15:22.764Z,7.28
2022-10-26T04:17:55.991Z,8.38
2022-10-26T04:20:22.828Z,8.48
2022-10-26T04:22:59.289Z,9.18
2022-10-26T04:25:28.751Z,11.52
2022-10-26T04:27:59.649Z,9.57
2022-10-26T04:30:26.792Z,7.72
2022-10-26T04:32:53.774Z,9.10
2022-10-26T04:35:20.701Z,9.48
2022-10-26T04:37:47.717Z,9.18
2022-10-26T04:40:14.661Z,8.27
2022-10-26T04:42:46.842Z,7.88
2022-10-26T04:45:16.159Z,8.63
2022-10-26T04:47:43.306Z,8.32
2022-10-26T04:50:12.155Z,9.15
2022-10-26T04:52:38.957Z,8.30
2022-10-26T04:55:07.037Z,7.88
2022-10-26T04:57:34.801Z,8.77
2022-10-26T05:00:03.737Z,8.18
2022-10-26T05:02:30.810Z,7.75
2022-10-26T05:04:57.770Z,7.72
2022-10-26T05:07:24.659Z,7.50
2022-10-26T05:09:51.495Z,7.75
2022-10-26T05:12:18.345Z,8.13
2022-10-26T05:14:45.208Z,7.65
2022-10-26T05:17:12.030Z,9.40
2022-10-26T05:19:38.949Z,8.43
2022-10-26T05:22:05.825Z,7.82
2022-10-26T05:24:32.744Z,7.60
2022-10-26T05:26:59.626Z,7.75
2022-10-26T05:29:26.439Z,7.40
2022-10-26T05:31:53.333Z,7.63
2022-10-26T05:34:20.146Z,7.45
2022-10-26T05:36:46.980Z,7.45
2022-10-26T05:39:13.902Z,7.82
2022-10-26T05:41:40.733Z,6.85
2022-10-26T05:44:07.580Z,7.93
2022-10-26T05:46:34.428Z,7.75
2022-10-26T05:49:01.340Z,6.93
2022-10-26T05:51:28.157Z,7.10
2022-10-26T05:53:54.993Z,6.70
2022-10-26T05:56:35.379Z,6.40
2022-10-26T05:59:02.897Z,7.20
2022-10-26T06:01:50.210Z,6.97
2022-10-26T06:04:22.745Z,7.10
2022-10-26T06:06:54.690Z,6.38
2022-10-26T06:09:21.933Z,6.97
2022-10-26T06:14:17.164Z,6.38
2022-10-26T06:16:55.447Z,6.40
2022-10-26T06:19:28.046Z,7.15
2022-10-26T06:22:27.089Z,6.60
2022-10-26T06:25:20.062Z,6.53
2022-10-26T06:28:03.701Z,6.35
2022-10-26T06:30:30.592Z,6.50
2022-10-26T06:33:05.629Z,6.15
2022-10-26T06:35:55.306Z,6.75
2022-10-26T06:38:25.254Z,7.60
2022-10-26T06:40:55.548Z,6.97
2022-10-26T06:43:28.354Z,6.57
2022-10-26T06:46:07.678Z,6.80
2022-10-26T06:48:49.937Z,6.82
2022-10-26T06:51:18.265Z,6.40
2022-10-26T06:54:10.813Z,6.55
2022-10-26T06:56:37.921Z,6.50
2022-10-26T06:59:13.374Z,7.03
2022-10-26T07:01:40.445Z,6.82
2022-10-26T07:04:07.389Z,6.22
2022-10-26T07:06:36.833Z,6.28
2022-10-26T07:09:06.044Z,6.78
2022-10-26T07:11:32.873Z,6.90
2022-10-26T07:13:59.748Z,7.00
2022-10-26T07:16:28.003Z,6.80
2022-10-26T07:18:54.974Z,8.60
2022-10-26T07:21:21.864Z,7.07
2022-10-26T07:23:48.692Z,7.10
2022-10-26T07:26:15.574Z,7.20
2022-10-26T07:28:42.520Z,7.80
2022-10-26T07:31:09.393Z,8.27
2022-10-26T07:33:39.434Z,8.50
2022-10-26T07:36:11.022Z,8.45
2022-10-26T07:38:39.228Z,8.57
2022-10-26T07:41:06.619Z,8.82
2022-10-26T07:43:33.427Z,8.85
2022-10-26T07:46:00.272Z,7.35
2022-10-26T07:48:27.158Z,7.38
2022-10-26T07:50:54.080Z,10.30
2022-10-26T07:53:24.017Z,8.57
2022-10-26T07:55:58.807Z,9.57
2022-10-26T07:58:27.289Z,10.38
2022-10-26T08:00:54.234Z,9.65
2022-10-26T08:03:21.993Z,8.80
2022-10-26T08:05:51.448Z,9.98
2022-10-26T08:08:18.509Z,9.45
2022-10-26T08:10:46.297Z,7.65
2022-10-26T08:13:14.252Z,9.52
2022-10-26T08:15:41.451Z,7.40
2022-10-26T08:18:08.303Z,5.65
2022-10-26T08:20:35.162Z,8.77
2022-10-26T08:23:04.008Z,6.28
2022-10-26T08:25:30.893Z,6.32
2022-10-26T08:28:01.793Z,6.30
2022-10-26T08:30:29.972Z,6.63
2022-10-26T08:33:05.419Z,6.05
2022-10-26T08:35:33.057Z,7.88
2022-10-26T08:38:00.570Z,8.07
2022-10-26T08:40:31.657Z,6.68
2022-10-26T08:43:16.948Z,5.97
2022-10-26T08:45:50.859Z,6.18
2022-10-26T08:48:22.415Z,6.25
2022-10-26T08:50:54.644Z,5.93
2022-10-26T08:53:44.174Z,6.47
2022-10-26T08:56:26.173Z,5.45
2022-10-26T08:58:59.040Z,3.75
2022-10-26T09:01:26.006Z,5.95
2022-10-26T09:03:52.966Z,5.45
2022-10-26T09:06:35.137Z,5.50
2022-10-26T09:09:21.689Z,6.63
2022-10-26T09:12:09.610Z,5.10
2022-10-26T09:15:00.942Z,9.10
2022-10-26T09:17:38.437Z,5.82
2022-10-26T09:20:26.961Z,4.28
2022-10-26T09:23:14.781Z,3.72
2022-10-26T09:25:42.162Z,8.38
2022-10-26T09:28:17.903Z,3.60
2022-10-26T09:30:48.683Z,3.95
2022-10-26T09:33:26.600Z,4.88
2022-10-26T09:36:01.370Z,5.72
2022-10-26T09:38:53.157Z,4.25
2022-10-26T09:41:31.982Z,4.45
2022-10-26T09:44:18.605Z,4.00
2022-10-26T09:47:23.681Z,3.70
2022-10-26T09:49:58.304Z,3.70
2022-10-26T09:52:25.267Z,3.25
2022-10-26T09:54:52.088Z,3.90
2022-10-26T09:57:20.449Z,5.03
2022-10-26T09:59:48.180Z,3.17
2022-10-26T10:02:40.132Z,3.17
2022-10-26T10:05:50.208Z,5.38
2022-10-26T10:08:19.700Z,2.92
2022-10-26T10:11:14.351Z,3.63
2022-10-26T10:13:43.510Z,3.47
2022-10-26T10:16:23.988Z,2.70
2022-10-26T10:18:56.316Z,2.58
2022-10-26T10:21:44.519Z,2.13
2022-10-26T10:24:41.967Z,2.50
2022-10-26T10:27:17.598Z,2.42
2022-10-26T10:29:47.620Z,1.98
2022-10-26T10:32:22.364Z,4.20
2022-10-26T10:34:54.454Z,4.80
2022-10-26T10:37:30.900Z,4.50
2022-10-26T10:40:02.575Z,5.78
2022-10-26T10:42:41.101Z,4.82
2022-10-26T10:45:20.747Z,4.35
2022-10-26T10:48:20.739Z,4.13
2022-10-26T10:51:01.664Z,4.38
2022-10-26T10:53:37.422Z,4.30
2022-10-26T10:56:11.637Z,4.00
2022-10-26T10:58:41.481Z,3.72
2022-10-26T11:01:14.447Z,3.78
2022-10-26T11:04:16.985Z,4.50
2022-10-26T11:06:45.695Z,4.18
2022-10-26T11:09:17.215Z,4.75
2022-10-26T11:11:49.993Z,4.22
2022-10-26T11:14:35.516Z,4.10
2022-10-26T11:17:14.189Z,3.47
2022-10-26T11:19:54.481Z,4.30
2022-10-26T11:22:26.772Z,4.20
2022-10-26T11:24:59.721Z,4.03
2022-10-26T11:27:39.709Z,4.65
2022-10-26T11:30:15.081Z,4.38
2022-10-26T11:32:47.707Z,3.22
2022-10-26T11:35:19.719Z,3.17
2022-10-26T11:38:01.826Z,4.03
2022-10-26T11:40:45.794Z,3.42
2022-10-26T11:43:41.008Z,3.30
2022-10-26T11:46:19.115Z,2.80
2022-10-26T11:49:01.416Z,3.38
2022-10-26T11:51:50.917Z,3.83
2022-10-26T11:54:45.818Z,3.53
2022-10-26T11:57:13.002Z,3.03
2022-10-26T11:59:46.614Z,3.35
2022-10-26T12:05:20.458Z,3.63
2022-10-26T12:07:55.856Z,3.58
2022-10-26T12:10:32.460Z,3.78
2022-10-26T12:12:59.232Z,3.50
2022-10-26T12:16:03.147Z,2.90
2022-10-26T12:18:55.541Z,3.40
2022-10-26T12:21:27.635Z,4.50
2022-10-26T12:24:30.203Z,3.92
2022-10-26T12:27:04.144Z,3.53
2022-10-26T12:32:25.090Z,4.20
2022-10-26T12:34:51.875Z,3.58
2022-10-26T12:37:51.014Z,3.78
2022-10-26T12:40:33.234Z,4.10
2022-10-26T12:43:18.237Z,3.10
2022-10-26T12:45:47.025Z,2.97
2022-10-26T12:48:42.402Z,2.83
2022-10-26T12:51:27.109Z,3.15
2022-10-26T12:53:59.653Z,3.13
2022-10-26T12:56:42.565Z,3.05
2022-10-26T12:59:17.229Z,2.95
2022-10-26T13:02:12.090Z,2.88
2022-10-26T13:04:57.287Z,3.15
2022-10-26T13:07:26.504Z,3.17
2022-10-26T13:10:11.541Z,3.25
2022-10-26T13:12:56.475Z,2.83
2022-10-26T13:15:31.576Z,3.10
2022-10-26T13:18:02.625Z,3.20
2022-10-26T13:20:31.172Z,3.58
2022-10-26T13:22:58.805Z,3.20
2022-10-26T13:25:31.222Z,3.15
2022-10-26T13:28:31.740Z,3.72
2022-10-26T13:30:58.570Z,3.50
2022-10-26T13:33:41.002Z,3.83
2022-10-26T13:36:15.543Z,4.03
2022-10-26T13:38:43.094Z,4.22
2022-10-26T13:41:20.628Z,4.65
2022-10-26T13:43:48.649Z,4.38
2022-10-26T13:46:27.716Z,6.15
2022-10-26T13:49:01.461Z,4.75
2022-10-26T13:51:43.249Z,4.82
2022-10-26T13:54:36.945Z,4.40
2022-10-26T13:57:15.675Z,4.78
2022-10-26T13:59:45.715Z,5.18
2022-10-26T14:02:23.806Z,5.70
2022-10-26T14:05:00.324Z,4.63
2022-10-26T14:07:37.833Z,5.03
2022-10-26T14:10:05.172Z,4.38
2022-10-26T14:12:32.950Z,5.25
2022-10-26T14:15:07.573Z,5.18
2022-10-26T14:17:34.929Z,5.53
2022-10-26T14:20:04.212Z,5.65
2022-10-26T14:22:31.093Z,4.95
2022-10-26T14:24:59.890Z,5.65
2022-10-26T14:27:32.582Z,5.65
2022-10-26T14:30:21.707Z,5.18
2022-10-26T14:32:48.605Z,6.63
2022-10-26T14:35:16.209Z,6.53
2022-10-26T14:37:50.054Z,4.70
2022-10-26T14:40:20.820Z,5.18
2022-10-26T14:42:51.648Z,5.00
2022-10-26T14:45:55.112Z,5.18
2022-10-26T14:48:31.511Z,4.57
2022-10-26T14:51:16.338Z,6.47
2022-10-26T14:53:49.926Z,6.22
2022-10-26T14:56:46.470Z,5.22
2022-10-26T14:59:22.438Z,6.50
2022-10-26T15:01:50.749Z,5.68
2022-10-26T15:04:32.787Z,5.82
2022-10-26T15:07:07.873Z,6.18
2022-10-26T15:09:51.758Z,6.68
2022-10-26T15:27:36.945Z,5.72
2022-10-26T15:30:20.039Z,5.97
2022-10-26T15:32:47.377Z,7.05
2022-10-26T15:35:19.440Z,6.38
2022-10-26T15:37:47.363Z,6.95
2022-10-26T15:40:15.425Z,6.53
2022-10-26T15:42:45.407Z,6.85
2022-10-26T15:45:27.151Z,6.93
2022-10-26T15:47:57.718Z,6.50
2022-10-26T15:50:27.677Z,6.15
2022-10-26T15:53:01.613Z,7.85
2022-10-26T15:55:30.426Z,6.85
2022-10-26T15:57:57.289Z,7.13
2022-10-26T16:00:24.201Z,6.30
2022-10-26T16:02:51.020Z,7.57
2022-10-26T16:05:18.077Z,6.70
2022-10-26T16:07:47.920Z,7.63
2022-10-26T16:10:23.738Z,7.38
2022-10-26T16:12:51.249Z,7.15
2022-10-26T16:15:20.698Z,7.60
2022-10-26T16:17:49.156Z,7.70
2022-10-26T16:20:23.010Z,7.88
2022-10-26T16:22:52.471Z,8.05
2022-10-26T16:25:24.997Z,7.70
2022-10-26T16:27:54.334Z,7.00
2022-10-26T16:30:25.803Z,8.10
2022-10-26T16:32:54.061Z,8.50
2022-10-26T16:35:20.942Z,7.80
2022-10-26T16:37:47.929Z,8.75
2022-10-26T16:40:14.853Z,8.18
2022-10-26T16:42:44.023Z,7.95
2022-10-26T16:45:12.572Z,10.13
2022-10-26T16:47:40.293Z,11.45
2022-10-26T16:50:11.941Z,11.05
2022-10-26T16:52:39.642Z,10.38
2022-10-26T16:55:08.280Z,9.38
2022-10-26T16:57:36.549Z,10.50
2022-10-26T17:00:06.022Z,11.32
2022-10-26T17:02:33.179Z,9.35
2022-10-26T17:05:02.851Z,10.73
2022-10-26T17:07:32.897Z,10.30
2022-10-26T17:09:59.847Z,11.88
2022-10-26T17:15:00.700Z,11.80
2022-10-26T17:17:27.665Z,10.35
2022-10-26T17:19:54.601Z,9.68
2022-10-26T17:22:21.456Z,11.23
2022-10-26T17:24:48.304Z,10.68
2022-10-26T17:27:17.014Z,9.55
2022-10-26T17:29:43.874Z,9.38
2022-10-26T17:32:10.972Z,10.23
2022-10-26T17:34:37.897Z,11.43
2022-10-26T17:37:04.749Z,11.68
2022-10-26T17:39:31.566Z,12.48
2022-10-26T17:41:58.429Z,9.02
2022-10-26T17:44:25.470Z,7.20
2022-10-26T17:46:52.369Z,10.23
2022-10-26T17:49:22.267Z,11.57
2022-10-26T17:51:50.449Z,11.32
2022-10-26T17:56:49.024Z,9.45
2022-10-26T17:59:15.872Z,10.18
2022-10-26T18:01:43.526Z,10.48
2022-10-26T18:04:10.702Z,9.07
2022-10-26T18:06:37.574Z,10.68
2022-10-26T18:09:04.652Z,10.25
2022-10-26T18:14:03.570Z,11.27
2022-10-26T18:16:31.385Z,11.45
2022-10-26T18:19:04.487Z,10.48
2022-10-26T18:21:37.737Z,11.40
2022-10-26T18:24:05.913Z,10.27
2022-10-26T18:26:33.228Z,10.30
2022-10-26T18:29:01.990Z,11.75
2022-10-26T18:31:31.397Z,11.23
2022-10-26T18:34:03.291Z,10.60
2022-10-26T18:36:30.350Z,10.77
2022-10-26T18:38:57.878Z,10.88
2022-10-26T18:41:26.333Z,10.13
2022-10-26T18:43:56.634Z,9.05
2022-10-26T18:46:39.227Z,9.13
2022-10-26T18:49:06.408Z,8.82
2022-10-26T18:51:34.870Z,9.13
2022-10-26T18:54:02.252Z,9.35
2022-10-26T18:56:29.547Z,9.55
2022-10-26T18:58:58.834Z,9.25
2022-10-26T19:01:29.075Z,8.27
2022-10-26T19:03:58.728Z,8.68
2022-10-26T19:06:28.467Z,10.27
2022-10-26T19:08:56.184Z,9.05
2022-10-26T19:11:25.220Z,8.85
2022-10-26T19:13:55.163Z,9.52
2022-10-26T19:16:44.510Z,8.52
2022-10-26T19:19:11.692Z,8.55
2022-10-26T19:21:38.638Z,8.25
2022-10-26T19:24:12.079Z,8.68
2022-10-26T19:26:42.586Z,8.48
2022-10-26T19:29:16.015Z,8.25
2022-10-26T19:31:47.714Z,9.30
2022-10-26T19:34:15.944Z,8.15
2022-10-26T19:36:45.159Z,8.10
2022-10-26T19:39:14.187Z,9.02
2022-10-26T19:41:41.068Z,8.75
2022-10-26T19:44:08.004Z,9.25
2022-10-26T19:46:34.966Z,8.98
2022-10-26T19:49:02.509Z,8.32
2022-10-26T19:51:30.969Z,9.55
2022-10-26T19:54:03.173Z,8.68
2022-10-26T19:56:32.692Z,7.33
2022-10-26T19:58:59.646Z,6.35
2022-10-26T20:01:26.854Z,7.28
2022-10-26T20:03:53.927Z,6.10
2022-10-26T20:06:20.841Z,6.47
2022-10-26T20:08:49.188Z,6.93
2022-10-26T20:11:18.079Z,6.45
2022-10-26T20:13:46.386Z,5.95
2022-10-26T20:16:15.081Z,7.03
2022-10-26T20:18:45.753Z,5.35
2022-10-26T20:21:16.481Z,6.03
2022-10-26T20:23:44.274Z,6.80
2022-10-26T20:26:18.373Z,5.20
2022-10-26T20:28:48.196Z,6.95
2022-10-26T20:31:15.141Z,5.13
2022-10-26T20:33:42.485Z,5.60
2022-10-26T20:36:09.677Z,6.13
2022-10-26T20:38:36.887Z,5.20
2022-10-26T20:41:07.690Z,5.80
2022-10-26T20:43:39.441Z,5.55
2022-10-26T20:46:11.431Z,5.30
2022-10-26T20:48:38.901Z,6.28
2022-10-26T20:53:59.611Z,5.07
2022-10-26T20:56:26.970Z,5.03
2022-10-26T20:58:56.124Z,5.75
2022-10-26T21:01:27.799Z,4.97
2022-10-26T21:03:56.792Z,5.85
2022-10-26T21:06:24.987Z,5.55
2022-10-26T21:08:53.725Z,5.20
2022-10-26T21:11:21.925Z,5.90
2022-10-26T21:13:49.839Z,6.38
2022-10-26T21:16:17.953Z,5.53
2022-10-26T21:18:45.314Z,5.18
2022-10-26T21:21:12.445Z,6.55
2022-10-26T21:23:41.083Z,4.32
2022-10-26T21:26:09.110Z,5.50
2022-10-26T21:28:45.704Z,5.35
2022-10-26T21:31:15.129Z,5.63
2022-10-26T21:33:42.197Z,5.80
2022-10-26T21:36:14.177Z,5.45
2022-10-26T21:38:43.308Z,7.15
2022-10-26T21:41:18.071Z,5.75
2022-10-26T21:43:48.248Z,5.32
2022-10-26T21:46:16.854Z,5.35
2022-10-26T21:48:43.941Z,5.93
2022-10-26T21:51:17.060Z,6.40
2022-10-26T21:53:44.652Z,5.97
2022-10-26T21:56:14.492Z,6.90
2022-10-26T21:58:41.689Z,7.78
2022-10-26T22:01:11.338Z,9.60
2022-10-26T22:03:39.409Z,12.15
2022-10-26T22:06:08.493Z,12.73
2022-10-26T22:08:36.314Z,14.80
2022-10-26T22:11:15.574Z,14.60
2022-10-26T22:13:44.160Z,15.10
2022-10-26T22:16:13.617Z,16.58
2022-10-26T22:18:43.209Z,15.20
2022-10-26T22:21:11.109Z,15.65
2022-10-26T22:23:40.438Z,17.23
2022-10-26T22:26:18.870Z,16.55
2022-10-26T22:28:47.536Z,15.98
2022-10-26T22:31:17.726Z,14.70
2022-10-26T22:33:45.300Z,12.30
2022-10-26T22:36:15.275Z,10.88
2022-10-26T22:38:42.548Z,11.40
2022-10-26T22:41:10.417Z,11.18
2022-10-26T22:43:37.358Z,10.35
2022-10-26T22:46:05.905Z,9.88
2022-10-26T22:48:34.395Z,8.93
2022-10-26T22:51:06.494Z,8.43
2022-10-26T22:53:33.434Z,8.63
2022-10-26T22:58:45.496Z,7.75
2022-10-26T23:01:21.504Z,7.47
2022-10-26T23:03:48.954Z,8.32
2022-10-26T23:06:18.917Z,8.30
2022-10-26T23:08:49.645Z,10.20
2022-10-26T23:11:19.061Z,9.90
2022-10-26T23:13:46.041Z,10.40
2022-10-26T23:16:17.782Z,11.52
2022-10-26T23:18:45.144Z,10.27
2022-10-26T23:21:14.454Z,10.80
2022-10-26T23:23:48.133Z,10.18
2022-10-26T23:26:18.103Z,11.88
2022-10-26T23:28:47.950Z,10.80
2022-10-26T23:31:20.286Z,10.60
2022-10-26T23:33:51.561Z,10.93
2022-10-26T23:36:19.076Z,10.65
2022-10-26T23:38:46.747Z,10.95
2022-10-26T23:41:13.791Z,11.50
2022-10-26T23:43:40.850Z,11.38
2022-10-26T23:46:07.923Z,10.55
2022-10-26T23:48:34.754Z,11.40
2022-10-26T23:51:01.607Z,9.77
2022-10-26T23:53:28.595Z,10.05
2022-10-26T23:55:55.578Z,10.20
2022-10-26T23:58:22.532Z,10.20
